sensor_id;sensor_type;location;lat;lon;timestamp;P1;durP1;ratioP1;P2;durP2;ratioP2
23222;SDS011;11780;13.904;100.620;2023-04-24T00:00:57;37.78;;;32.42;;
23222;SDS011;11780;13.904;100.620;2023-04-24T00:03:31;42.63;;;34.30;;
23222;SDS011;11780;13.904;100.620;2023-04-24T00:08:32;43.90;;;35.53;;
23222;SDS011;11780;13.904;100.620;2023-04-24T00:11:02;28.75;;;23.08;;
23222;SDS011;11780;13.904;100.620;2023-04-24T00:13:32;42.10;;;34.20;;
23222;SDS011;11780;13.904;100.620;2023-04-24T00:16:03;44.85;;;35.90;;
23222;SDS011;11780;13.904;100.620;2023-04-24T00:18:33;43.60;;;36.13;;
23222;SDS011;11780;13.904;100.620;2023-04-24T00:21:03;41.58;;;34.85;;
23222;SDS011;11780;13.904;100.620;2023-04-24T00:23:34;44.90;;;35.00;;
23222;SDS011;11780;13.904;100.620;2023-04-24T00:26:05;38.47;;;32.93;;
23222;SDS011;11780;13.904;100.620;2023-04-24T00:28:35;40.53;;;35.53;;
23222;SDS011;11780;13.904;100.620;2023-04-24T00:31:05;44.65;;;35.35;;
23222;SDS011;11780;13.904;100.620;2023-04-24T00:33:36;45.13;;;36.23;;
23222;SDS011;11780;13.904;100.620;2023-04-24T00:36:06;46.27;;;36.57;;
23222;SDS011;11780;13.904;100.620;2023-04-24T00:38:37;44.43;;;37.27;;
23222;SDS011;11780;13.904;100.620;2023-04-24T00:41:07;40.60;;;35.73;;
23222;SDS011;11780;13.904;100.620;2023-04-24T00:43:37;41.22;;;35.72;;
23222;SDS011;11780;13.904;100.620;2023-04-24T00:46:09;43.13;;;33.90;;
23222;SDS011;11780;13.904;100.620;2023-04-24T00:48:40;46.53;;;36.65;;
23222;SDS011;11780;13.904;100.620;2023-04-24T00:51:11;44.53;;;35.17;;
23222;SDS011;11780;13.904;100.620;2023-04-24T00:53:41;41.20;;;36.60;;
23222;SDS011;11780;13.904;100.620;2023-04-24T00:58:43;41.25;;;35.60;;
23222;SDS011;11780;13.904;100.620;2023-04-24T01:03:44;39.90;;;35.47;;
23222;SDS011;11780;13.904;100.620;2023-04-24T01:06:15;43.23;;;35.60;;
23222;SDS011;11780;13.904;100.620;2023-04-24T01:08:45;40.13;;;35.90;;
23222;SDS011;11780;13.904;100.620;2023-04-24T01:11:17;40.30;;;33.80;;
23222;SDS011;11780;13.904;100.620;2023-04-24T01:13:48;37.15;;;33.08;;
23222;SDS011;11780;13.904;100.620;2023-04-24T01:16:18;40.03;;;35.40;;
23222;SDS011;11780;13.904;100.620;2023-04-24T01:18:53;41.42;;;36.10;;
23222;SDS011;11780;13.904;100.620;2023-04-24T01:21:23;40.47;;;36.10;;
23222;SDS011;11780;13.904;100.620;2023-04-24T01:23:57;40.20;;;35.95;;
23222;SDS011;11780;13.904;100.620;2023-04-24T01:26:27;40.83;;;35.30;;
23222;SDS011;11780;13.904;100.620;2023-04-24T01:28:57;42.97;;;35.05;;
23222;SDS011;11780;13.904;100.620;2023-04-24T01:31:28;36.90;;;32.63;;
23222;SDS011;11780;13.904;100.620;2023-04-24T01:33:59;39.22;;;34.67;;
23222;SDS011;11780;13.904;100.620;2023-04-24T01:36:30;35.85;;;32.03;;
23222;SDS011;11780;13.904;100.620;2023-04-24T01:39:02;36.65;;;32.42;;
23222;SDS011;11780;13.904;100.620;2023-04-24T01:41:33;36.33;;;32.58;;
23222;SDS011;11780;13.904;100.620;2023-04-24T01:44:03;35.90;;;32.17;;
23222;SDS011;11780;13.904;100.620;2023-04-24T01:46:34;37.33;;;33.23;;
23222;SDS011;11780;13.904;100.620;2023-04-24T01:49:05;36.33;;;32.67;;
23222;SDS011;11780;13.904;100.620;2023-04-24T01:51:37;36.53;;;32.63;;
23222;SDS011;11780;13.904;100.620;2023-04-24T01:54:08;36.13;;;32.43;;
23222;SDS011;11780;13.904;100.620;2023-04-24T01:56:40;35.78;;;31.88;;
23222;SDS011;11780;13.904;100.620;2023-04-24T01:59:12;35.58;;;31.55;;
23222;SDS011;11780;13.904;100.620;2023-04-24T02:01:42;35.83;;;32.23;;
23222;SDS011;11780;13.904;100.620;2023-04-24T02:04:13;36.50;;;32.55;;
23222;SDS011;11780;13.904;100.620;2023-04-24T02:06:46;35.33;;;30.13;;
23222;SDS011;11780;13.904;100.620;2023-04-24T02:09:16;32.08;;;28.77;;
23222;SDS011;11780;13.904;100.620;2023-04-24T02:11:46;33.83;;;30.55;;
23222;SDS011;11780;13.904;100.620;2023-04-24T02:14:17;32.80;;;29.50;;
23222;SDS011;11780;13.904;100.620;2023-04-24T02:16:47;37.73;;;31.40;;
23222;SDS011;11780;13.904;100.620;2023-04-24T02:19:18;33.72;;;30.15;;
23222;SDS011;11780;13.904;100.620;2023-04-24T02:21:50;35.67;;;32.13;;
23222;SDS011;11780;13.904;100.620;2023-04-24T02:24:20;35.05;;;31.23;;
23222;SDS011;11780;13.904;100.620;2023-04-24T02:26:50;33.07;;;29.70;;
23222;SDS011;11780;13.904;100.620;2023-04-24T02:29:21;33.63;;;30.27;;
23222;SDS011;11780;13.904;100.620;2023-04-24T02:31:51;33.50;;;30.00;;
23222;SDS011;11780;13.904;100.620;2023-04-24T02:34:21;31.92;;;28.67;;
23222;SDS011;11780;13.904;100.620;2023-04-24T02:36:52;32.85;;;29.45;;
23222;SDS011;11780;13.904;100.620;2023-04-24T02:39:23;33.05;;;29.40;;
23222;SDS011;11780;13.904;100.620;2023-04-24T02:41:55;31.73;;;28.45;;
23222;SDS011;11780;13.904;100.620;2023-04-24T02:44:25;33.13;;;29.50;;
23222;SDS011;11780;13.904;100.620;2023-04-24T02:46:55;32.83;;;29.40;;
23222;SDS011;11780;13.904;100.620;2023-04-24T02:49:25;31.85;;;28.63;;
23222;SDS011;11780;13.904;100.620;2023-04-24T02:51:56;31.55;;;28.23;;
23222;SDS011;11780;13.904;100.620;2023-04-24T02:54:26;31.60;;;28.47;;
23222;SDS011;11780;13.904;100.620;2023-04-24T02:56:57;34.33;;;28.27;;
23222;SDS011;11780;13.904;100.620;2023-04-24T02:59:45;34.10;;;28.15;;
23222;SDS011;11780;13.904;100.620;2023-04-24T03:02:15;29.80;;;26.80;;
23222;SDS011;11780;13.904;100.620;2023-04-24T03:05:01;31.42;;;28.13;;
23222;SDS011;11780;13.904;100.620;2023-04-24T03:07:50;31.80;;;28.15;;
23222;SDS011;11780;13.904;100.620;2023-04-24T03:10:40;30.92;;;27.67;;
23222;SDS011;11780;13.904;100.620;2023-04-24T03:13:32;30.15;;;27.05;;
23222;SDS011;11780;13.904;100.620;2023-04-24T03:16:20;28.55;;;25.67;;
23222;SDS011;11780;13.904;100.620;2023-04-24T03:19:06;29.02;;;26.13;;
23222;SDS011;11780;13.904;100.620;2023-04-24T03:21:45;29.50;;;26.38;;
23222;SDS011;11780;13.904;100.620;2023-04-24T03:24:16;27.20;;;24.60;;
23222;SDS011;11780;13.904;100.620;2023-04-24T03:27:01;32.03;;;26.55;;
23222;SDS011;11780;13.904;100.620;2023-04-24T03:29:49;30.48;;;27.00;;
23222;SDS011;11780;13.904;100.620;2023-04-24T03:32:43;29.05;;;25.92;;
23222;SDS011;11780;13.904;100.620;2023-04-24T03:35:18;28.35;;;25.45;;
23222;SDS011;11780;13.904;100.620;2023-04-24T03:37:52;28.27;;;25.55;;
23222;SDS011;11780;13.904;100.620;2023-04-24T03:40:42;30.73;;;26.27;;
23222;SDS011;11780;13.904;100.620;2023-04-24T03:43:38;27.85;;;25.25;;
23222;SDS011;11780;13.904;100.620;2023-04-24T03:46:09;28.25;;;25.45;;
23222;SDS011;11780;13.904;100.620;2023-04-24T03:48:58;28.67;;;25.40;;
23222;SDS011;11780;13.904;100.620;2023-04-24T03:51:33;29.52;;;26.42;;
23222;SDS011;11780;13.904;100.620;2023-04-24T03:54:23;27.13;;;24.33;;
23222;SDS011;11780;13.904;100.620;2023-04-24T03:56:54;27.50;;;24.63;;
23222;SDS011;11780;13.904;100.620;2023-04-24T03:59:26;27.27;;;24.55;;
23222;SDS011;11780;13.904;100.620;2023-04-24T04:02:17;26.83;;;24.23;;
23222;SDS011;11780;13.904;100.620;2023-04-24T04:04:48;28.20;;;25.37;;
23222;SDS011;11780;13.904;100.620;2023-04-24T04:07:19;26.20;;;23.75;;
23222;SDS011;11780;13.904;100.620;2023-04-24T04:09:49;27.53;;;24.73;;
23222;SDS011;11780;13.904;100.620;2023-04-24T04:12:22;27.20;;;24.38;;
23222;SDS011;11780;13.904;100.620;2023-04-24T04:14:52;26.23;;;23.23;;
23222;SDS011;11780;13.904;100.620;2023-04-24T04:17:41;28.52;;;25.63;;
23222;SDS011;11780;13.904;100.620;2023-04-24T04:20:11;28.33;;;25.33;;
23222;SDS011;11780;13.904;100.620;2023-04-24T04:22:42;28.87;;;24.27;;
23222;SDS011;11780;13.904;100.620;2023-04-24T04:25:17;25.98;;;23.25;;
23222;SDS011;11780;13.904;100.620;2023-04-24T04:28:06;26.75;;;24.00;;
23222;SDS011;11780;13.904;100.620;2023-04-24T04:30:55;26.45;;;23.65;;
23222;SDS011;11780;13.904;100.620;2023-04-24T04:33:26;26.40;;;23.73;;
23222;SDS011;11780;13.904;100.620;2023-04-24T04:35:57;27.43;;;24.37;;
23222;SDS011;11780;13.904;100.620;2023-04-24T04:38:31;29.60;;;25.05;;
23222;SDS011;11780;13.904;100.620;2023-04-24T04:41:19;27.48;;;24.52;;
23222;SDS011;11780;13.904;100.620;2023-04-24T04:44:04;26.17;;;23.58;;
23222;SDS011;11780;13.904;100.620;2023-04-24T04:46:36;27.27;;;23.20;;
23222;SDS011;11780;13.904;100.620;2023-04-24T04:49:23;26.45;;;23.85;;
23222;SDS011;11780;13.904;100.620;2023-04-24T04:51:54;27.13;;;24.17;;
23222;SDS011;11780;13.904;100.620;2023-04-24T04:54:26;26.83;;;24.15;;
23222;SDS011;11780;13.904;100.620;2023-04-24T04:56:57;28.63;;;25.50;;
23222;SDS011;11780;13.904;100.620;2023-04-24T04:59:31;27.30;;;24.27;;
23222;SDS011;11780;13.904;100.620;2023-04-24T05:02:19;27.50;;;24.70;;
23222;SDS011;11780;13.904;100.620;2023-04-24T05:05:08;25.77;;;23.38;;
23222;SDS011;11780;13.904;100.620;2023-04-24T05:07:38;26.25;;;23.30;;
23222;SDS011;11780;13.904;100.620;2023-04-24T05:10:09;26.85;;;24.02;;
23222;SDS011;11780;13.904;100.620;2023-04-24T05:12:39;27.23;;;24.33;;
23222;SDS011;11780;13.904;100.620;2023-04-24T05:15:12;27.42;;;24.50;;
23222;SDS011;11780;13.904;100.620;2023-04-24T05:17:42;27.23;;;24.37;;
23222;SDS011;11780;13.904;100.620;2023-04-24T05:20:13;26.75;;;23.92;;
23222;SDS011;11780;13.904;100.620;2023-04-24T05:22:44;29.38;;;26.40;;
23222;SDS011;11780;13.904;100.620;2023-04-24T05:27:53;28.73;;;25.50;;
23222;SDS011;11780;13.904;100.620;2023-04-24T05:30:24;29.25;;;25.75;;
23222;SDS011;11780;13.904;100.620;2023-04-24T05:32:54;29.33;;;26.17;;
23222;SDS011;11780;13.904;100.620;2023-04-24T05:35:29;29.67;;;26.40;;
23222;SDS011;11780;13.904;100.620;2023-04-24T05:40:30;30.17;;;26.85;;
23222;SDS011;11780;13.904;100.620;2023-04-24T05:43:01;29.20;;;26.17;;
23222;SDS011;11780;13.904;100.620;2023-04-24T05:45:31;29.05;;;26.10;;
23222;SDS011;11780;13.904;100.620;2023-04-24T05:48:02;29.40;;;26.07;;
23222;SDS011;11780;13.904;100.620;2023-04-24T05:50:33;30.98;;;27.83;;
23222;SDS011;11780;13.904;100.620;2023-04-24T05:53:04;30.95;;;27.92;;
23222;SDS011;11780;13.904;100.620;2023-04-24T05:55:37;29.70;;;26.73;;
23222;SDS011;11780;13.904;100.620;2023-04-24T05:58:07;30.40;;;27.17;;
23222;SDS011;11780;13.904;100.620;2023-04-24T06:00:56;27.85;;;25.15;;
23222;SDS011;11780;13.904;100.620;2023-04-24T06:03:28;30.05;;;26.95;;
23222;SDS011;11780;13.904;100.620;2023-04-24T06:06:02;30.33;;;27.15;;
23222;SDS011;11780;13.904;100.620;2023-04-24T06:08:33;30.35;;;27.15;;
23222;SDS011;11780;13.904;100.620;2023-04-24T06:13:34;29.70;;;26.67;;
23222;SDS011;11780;13.904;100.620;2023-04-24T06:16:23;31.10;;;27.90;;
23222;SDS011;11780;13.904;100.620;2023-04-24T06:19:00;30.98;;;27.85;;
23222;SDS011;11780;13.904;100.620;2023-04-24T06:21:30;29.90;;;26.98;;
23222;SDS011;11780;13.904;100.620;2023-04-24T06:24:01;30.88;;;27.67;;
23222;SDS011;11780;13.904;100.620;2023-04-24T06:26:31;30.07;;;27.13;;
23222;SDS011;11780;13.904;100.620;2023-04-24T06:29:02;32.10;;;28.70;;
23222;SDS011;11780;13.904;100.620;2023-04-24T06:31:32;29.63;;;26.63;;
23222;SDS011;11780;13.904;100.620;2023-04-24T06:34:06;31.88;;;28.48;;
23222;SDS011;11780;13.904;100.620;2023-04-24T06:36:37;30.07;;;27.13;;
23222;SDS011;11780;13.904;100.620;2023-04-24T06:39:07;31.05;;;27.83;;
23222;SDS011;11780;13.904;100.620;2023-04-24T06:41:38;31.25;;;28.13;;
23222;SDS011;11780;13.904;100.620;2023-04-24T06:44:17;32.42;;;28.95;;
23222;SDS011;11780;13.904;100.620;2023-04-24T06:46:48;31.93;;;28.63;;
23222;SDS011;11780;13.904;100.620;2023-04-24T06:49:18;31.63;;;28.53;;
23222;SDS011;11780;13.904;100.620;2023-04-24T06:51:49;32.67;;;28.80;;
23222;SDS011;11780;13.904;100.620;2023-04-24T06:54:20;31.10;;;27.92;;
23222;SDS011;11780;13.904;100.620;2023-04-24T06:56:50;31.57;;;28.53;;
23222;SDS011;11780;13.904;100.620;2023-04-24T07:01:51;30.70;;;27.70;;
23222;SDS011;11780;13.904;100.620;2023-04-24T07:04:22;31.10;;;28.03;;
23222;SDS011;11780;13.904;100.620;2023-04-24T07:06:54;31.08;;;27.83;;
23222;SDS011;11780;13.904;100.620;2023-04-24T07:09:28;32.30;;;29.08;;
23222;SDS011;11780;13.904;100.620;2023-04-24T07:11:58;31.93;;;28.43;;
23222;SDS011;11780;13.904;100.620;2023-04-24T07:14:28;29.85;;;26.48;;
23222;SDS011;11780;13.904;100.620;2023-04-24T07:16:58;30.98;;;27.73;;
23222;SDS011;11780;13.904;100.620;2023-04-24T07:19:28;30.45;;;27.42;;
23222;SDS011;11780;13.904;100.620;2023-04-24T07:21:59;31.93;;;28.67;;
23222;SDS011;11780;13.904;100.620;2023-04-24T07:24:29;31.30;;;28.08;;
23222;SDS011;11780;13.904;100.620;2023-04-24T07:27:01;30.63;;;27.33;;
23222;SDS011;11780;13.904;100.620;2023-04-24T07:32:02;31.52;;;27.92;;
23222;SDS011;11780;13.904;100.620;2023-04-24T07:34:33;31.00;;;27.98;;
23222;SDS011;11780;13.904;100.620;2023-04-24T07:37:03;31.67;;;28.47;;
23222;SDS011;11780;13.904;100.620;2023-04-24T07:39:34;32.03;;;28.60;;
23222;SDS011;11780;13.904;100.620;2023-04-24T07:42:04;31.20;;;28.17;;
23222;SDS011;11780;13.904;100.620;2023-04-24T07:44:34;33.50;;;29.40;;
23222;SDS011;11780;13.904;100.620;2023-04-24T07:47:05;32.97;;;29.53;;
23222;SDS011;11780;13.904;100.620;2023-04-24T07:49:35;33.03;;;29.63;;
23222;SDS011;11780;13.904;100.620;2023-04-24T07:52:05;31.95;;;28.67;;
23222;SDS011;11780;13.904;100.620;2023-04-24T07:54:36;33.17;;;29.77;;
23222;SDS011;11780;13.904;100.620;2023-04-24T07:57:06;32.90;;;29.50;;
23222;SDS011;11780;13.904;100.620;2023-04-24T07:59:37;32.75;;;28.67;;
23222;SDS011;11780;13.904;100.620;2023-04-24T08:02:08;32.17;;;28.98;;
23222;SDS011;11780;13.904;100.620;2023-04-24T08:04:39;32.20;;;28.90;;
23222;SDS011;11780;13.904;100.620;2023-04-24T08:07:10;32.58;;;29.27;;
23222;SDS011;11780;13.904;100.620;2023-04-24T08:09:43;32.47;;;28.30;;
23222;SDS011;11780;13.904;100.620;2023-04-24T08:12:13;31.63;;;28.63;;
23222;SDS011;11780;13.904;100.620;2023-04-24T08:14:44;31.75;;;28.48;;
23222;SDS011;11780;13.904;100.620;2023-04-24T08:17:14;32.67;;;29.35;;
23222;SDS011;11780;13.904;100.620;2023-04-24T08:19:46;33.10;;;29.70;;
23222;SDS011;11780;13.904;100.620;2023-04-24T08:22:20;32.47;;;29.13;;
23222;SDS011;11780;13.904;100.620;2023-04-24T08:24:51;32.53;;;29.33;;
23222;SDS011;11780;13.904;100.620;2023-04-24T08:27:21;31.30;;;28.23;;
23222;SDS011;11780;13.904;100.620;2023-04-24T08:29:54;32.60;;;29.50;;
23222;SDS011;11780;13.904;100.620;2023-04-24T08:32:25;33.30;;;30.05;;
23222;SDS011;11780;13.904;100.620;2023-04-24T08:34:59;32.17;;;28.88;;
23222;SDS011;11780;13.904;100.620;2023-04-24T08:37:29;33.20;;;29.80;;
23222;SDS011;11780;13.904;100.620;2023-04-24T08:40:00;33.22;;;29.70;;
23222;SDS011;11780;13.904;100.620;2023-04-24T08:42:36;32.10;;;28.17;;
23222;SDS011;11780;13.904;100.620;2023-04-24T08:45:08;32.05;;;28.67;;
23222;SDS011;11780;13.904;100.620;2023-04-24T08:47:41;31.48;;;27.73;;
23222;SDS011;11780;13.904;100.620;2023-04-24T08:50:13;34.42;;;30.50;;
23222;SDS011;11780;13.904;100.620;2023-04-24T08:52:44;30.65;;;27.35;;
23222;SDS011;11780;13.904;100.620;2023-04-24T08:55:15;34.80;;;30.77;;
23222;SDS011;11780;13.904;100.620;2023-04-24T08:57:51;33.08;;;29.48;;
23222;SDS011;11780;13.904;100.620;2023-04-24T09:00:22;32.42;;;29.02;;
23222;SDS011;11780;13.904;100.620;2023-04-24T09:02:53;32.75;;;29.27;;
23222;SDS011;11780;13.904;100.620;2023-04-24T09:05:24;32.58;;;29.33;;
23222;SDS011;11780;13.904;100.620;2023-04-24T09:07:56;32.90;;;28.98;;
23222;SDS011;11780;13.904;100.620;2023-04-24T09:10:27;33.97;;;29.45;;
23222;SDS011;11780;13.904;100.620;2023-04-24T09:12:59;33.22;;;29.70;;
23222;SDS011;11780;13.904;100.620;2023-04-24T09:15:31;32.80;;;29.27;;
23222;SDS011;11780;13.904;100.620;2023-04-24T09:18:02;32.75;;;29.45;;
23222;SDS011;11780;13.904;100.620;2023-04-24T09:20:33;32.97;;;29.52;;
23222;SDS011;11780;13.904;100.620;2023-04-24T09:23:05;33.63;;;30.10;;
23222;SDS011;11780;13.904;100.620;2023-04-24T09:25:36;33.80;;;30.13;;
23222;SDS011;11780;13.904;100.620;2023-04-24T09:28:06;33.40;;;29.58;;
23222;SDS011;11780;13.904;100.620;2023-04-24T09:30:36;33.90;;;29.27;;
23222;SDS011;11780;13.904;100.620;2023-04-24T09:33:13;33.53;;;30.23;;
23222;SDS011;11780;13.904;100.620;2023-04-24T09:35:49;33.22;;;29.63;;
23222;SDS011;11780;13.904;100.620;2023-04-24T09:38:31;33.38;;;29.98;;
23222;SDS011;11780;13.904;100.620;2023-04-24T09:41:08;35.00;;;31.33;;
23222;SDS011;11780;13.904;100.620;2023-04-24T09:43:42;32.42;;;28.98;;
23222;SDS011;11780;13.904;100.620;2023-04-24T09:46:13;33.10;;;29.53;;
23222;SDS011;11780;13.904;100.620;2023-04-24T09:48:43;32.50;;;29.03;;
23222;SDS011;11780;13.904;100.620;2023-04-24T09:51:13;32.40;;;29.00;;
23222;SDS011;11780;13.904;100.620;2023-04-24T09:53:47;31.85;;;28.65;;
23222;SDS011;11780;13.904;100.620;2023-04-24T09:56:24;31.63;;;28.33;;
23222;SDS011;11780;13.904;100.620;2023-04-24T09:58:58;32.97;;;29.30;;
23222;SDS011;11780;13.904;100.620;2023-04-24T10:01:34;31.33;;;28.13;;
23222;SDS011;11780;13.904;100.620;2023-04-24T10:06:35;33.33;;;29.95;;
23222;SDS011;11780;13.904;100.620;2023-04-24T10:09:06;34.70;;;31.05;;
23222;SDS011;11780;13.904;100.620;2023-04-24T10:11:36;33.57;;;30.10;;
23222;SDS011;11780;13.904;100.620;2023-04-24T10:14:07;34.97;;;31.35;;
23222;SDS011;11780;13.904;100.620;2023-04-24T10:16:41;31.42;;;28.23;;
23222;SDS011;11780;13.904;100.620;2023-04-24T10:19:12;33.42;;;29.88;;
23222;SDS011;11780;13.904;100.620;2023-04-24T10:21:44;33.42;;;30.10;;
23222;SDS011;11780;13.904;100.620;2023-04-24T10:24:18;37.60;;;31.92;;
23222;SDS011;11780;13.904;100.620;2023-04-24T10:26:51;32.88;;;29.48;;
23222;SDS011;11780;13.904;100.620;2023-04-24T10:29:23;33.67;;;29.48;;
23222;SDS011;11780;13.904;100.620;2023-04-24T10:31:55;32.53;;;28.85;;
23222;SDS011;11780;13.904;100.620;2023-04-24T10:34:25;34.37;;;30.10;;
23222;SDS011;11780;13.904;100.620;2023-04-24T10:36:57;33.25;;;29.83;;
23222;SDS011;11780;13.904;100.620;2023-04-24T10:39:28;34.58;;;30.92;;
23222;SDS011;11780;13.904;100.620;2023-04-24T10:42:00;33.92;;;30.38;;
23222;SDS011;11780;13.904;100.620;2023-04-24T10:44:36;32.87;;;29.67;;
23222;SDS011;11780;13.904;100.620;2023-04-24T10:47:12;34.20;;;30.35;;
23222;SDS011;11780;13.904;100.620;2023-04-24T10:49:46;34.08;;;30.58;;
23222;SDS011;11780;13.904;100.620;2023-04-24T10:52:21;34.53;;;30.85;;
23222;SDS011;11780;13.904;100.620;2023-04-24T10:54:52;33.47;;;29.63;;
23222;SDS011;11780;13.904;100.620;2023-04-24T10:57:27;34.63;;;31.10;;
23222;SDS011;11780;13.904;100.620;2023-04-24T11:00:19;31.85;;;28.65;;
23222;SDS011;11780;13.904;100.620;2023-04-24T11:02:50;33.13;;;29.67;;
23222;SDS011;11780;13.904;100.620;2023-04-24T11:05:48;35.10;;;30.92;;
23222;SDS011;11780;13.904;100.620;2023-04-24T11:11:01;35.13;;;29.35;;
23222;SDS011;11780;13.904;100.620;2023-04-24T11:14:13;34.78;;;29.02;;
23222;SDS011;11780;13.904;100.620;2023-04-24T11:16:42;31.45;;;27.48;;
23222;SDS011;11780;13.904;100.620;2023-04-24T11:19:22;36.38;;;26.98;;
23222;SDS011;11780;13.904;100.620;2023-04-24T11:24:38;35.63;;;24.20;;
23222;SDS011;11780;13.904;100.620;2023-04-24T11:27:17;39.25;;;22.65;;
23222;SDS011;11780;13.904;100.620;2023-04-24T11:29:58;53.28;;;25.95;;
23222;SDS011;11780;13.904;100.620;2023-04-24T11:35:01;48.75;;;29.10;;
23222;SDS011;11780;13.904;100.620;2023-04-24T11:37:39;47.97;;;25.38;;
23222;SDS011;11780;13.904;100.620;2023-04-24T11:40:12;41.45;;;24.08;;
23222;SDS011;11780;13.904;100.620;2023-04-24T11:42:45;34.78;;;24.45;;
23222;SDS011;11780;13.904;100.620;2023-04-24T11:45:18;36.58;;;23.15;;
23222;SDS011;11780;13.904;100.620;2023-04-24T11:47:51;31.70;;;22.58;;
23222;SDS011;11780;13.904;100.620;2023-04-24T11:50:22;33.57;;;24.30;;
23222;SDS011;11780;13.904;100.620;2023-04-24T11:52:55;32.58;;;23.05;;
23222;SDS011;11780;13.904;100.620;2023-04-24T11:55:26;36.20;;;24.60;;
23222;SDS011;11780;13.904;100.620;2023-04-24T11:57:57;31.27;;;21.75;;
23222;SDS011;11780;13.904;100.620;2023-04-24T12:00:30;28.88;;;23.92;;
23222;SDS011;11780;13.904;100.620;2023-04-24T12:03:10;27.55;;;22.75;;
23222;SDS011;11780;13.904;100.620;2023-04-24T12:05:41;31.27;;;21.52;;
23222;SDS011;11780;13.904;100.620;2023-04-24T12:08:26;32.17;;;22.45;;
23222;SDS011;11780;13.904;100.620;2023-04-24T12:10:58;24.08;;;20.80;;
23222;SDS011;11780;13.904;100.620;2023-04-24T12:13:30;25.35;;;19.48;;
23222;SDS011;11780;13.904;100.620;2023-04-24T12:16:04;33.58;;;20.85;;
23222;SDS011;11780;13.904;100.620;2023-04-24T12:18:35;24.48;;;21.33;;
23222;SDS011;11780;13.904;100.620;2023-04-24T12:21:20;25.23;;;19.52;;
23222;SDS011;11780;13.904;100.620;2023-04-24T12:23:55;22.33;;;18.80;;
23222;SDS011;11780;13.904;100.620;2023-04-24T12:26:26;23.23;;;18.35;;
23222;SDS011;11780;13.904;100.620;2023-04-24T12:29:01;26.65;;;19.23;;
23222;SDS011;11780;13.904;100.620;2023-04-24T12:31:33;28.08;;;21.85;;
23222;SDS011;11780;13.904;100.620;2023-04-24T12:34:04;26.07;;;21.30;;
23222;SDS011;11780;13.904;100.620;2023-04-24T12:36:46;31.30;;;21.92;;
23222;SDS011;11780;13.904;100.620;2023-04-24T12:39:17;32.63;;;22.13;;
23222;SDS011;11780;13.904;100.620;2023-04-24T12:41:55;30.35;;;23.42;;
23222;SDS011;11780;13.904;100.620;2023-04-24T12:44:30;31.25;;;23.73;;
23222;SDS011;11780;13.904;100.620;2023-04-24T12:47:01;33.10;;;22.70;;
23222;SDS011;11780;13.904;100.620;2023-04-24T12:49:31;33.73;;;24.77;;
23222;SDS011;11780;13.904;100.620;2023-04-24T12:52:02;30.53;;;23.67;;
23222;SDS011;11780;13.904;100.620;2023-04-24T12:54:33;31.27;;;24.05;;
23222;SDS011;11780;13.904;100.620;2023-04-24T12:57:03;33.50;;;23.92;;
23222;SDS011;11780;13.904;100.620;2023-04-24T12:59:34;33.97;;;24.05;;
23222;SDS011;11780;13.904;100.620;2023-04-24T13:02:04;30.63;;;23.67;;
23222;SDS011;11780;13.904;100.620;2023-04-24T13:04:34;32.38;;;23.90;;
23222;SDS011;11780;13.904;100.620;2023-04-24T13:07:05;29.15;;;24.25;;
23222;SDS011;11780;13.904;100.620;2023-04-24T13:09:35;30.10;;;23.60;;
23222;SDS011;11780;13.904;100.620;2023-04-24T13:12:06;29.50;;;23.60;;
23222;SDS011;11780;13.904;100.620;2023-04-24T13:14:37;31.70;;;23.55;;
23222;SDS011;11780;13.904;100.620;2023-04-24T13:17:07;25.70;;;21.92;;
23222;SDS011;11780;13.904;100.620;2023-04-24T13:19:39;27.42;;;21.75;;
23222;SDS011;11780;13.904;100.620;2023-04-24T13:22:11;26.02;;;21.45;;
23222;SDS011;11780;13.904;100.620;2023-04-24T13:27:12;31.17;;;21.80;;
23222;SDS011;11780;13.904;100.620;2023-04-24T13:29:42;29.23;;;22.93;;
23222;SDS011;11780;13.904;100.620;2023-04-24T13:32:12;25.60;;;21.53;;
23222;SDS011;11780;13.904;100.620;2023-04-24T13:34:43;26.08;;;23.02;;
23222;SDS011;11780;13.904;100.620;2023-04-24T13:37:14;27.67;;;21.70;;
23222;SDS011;11780;13.904;100.620;2023-04-24T13:39:44;30.47;;;21.00;;
23222;SDS011;11780;13.904;100.620;2023-04-24T13:43:48;30.67;;;23.85;;
23222;SDS011;11780;13.904;100.620;2023-04-24T13:46:18;27.42;;;22.15;;
23222;SDS011;11780;13.904;100.620;2023-04-24T13:48:49;29.93;;;21.83;;
23222;SDS011;11780;13.904;100.620;2023-04-24T13:51:19;28.17;;;21.30;;
23222;SDS011;11780;13.904;100.620;2023-04-24T13:53:50;31.35;;;21.73;;
23222;SDS011;11780;13.904;100.620;2023-04-24T13:56:20;26.85;;;21.52;;
23222;SDS011;11780;13.904;100.620;2023-04-24T13:58:51;24.13;;;21.02;;
23222;SDS011;11780;13.904;100.620;2023-04-24T14:01:23;25.70;;;20.98;;
23222;SDS011;11780;13.904;100.620;2023-04-24T14:03:54;24.42;;;21.90;;
23222;SDS011;11780;13.904;100.620;2023-04-24T14:06:25;25.50;;;22.63;;
23222;SDS011;11780;13.904;100.620;2023-04-24T14:08:55;26.87;;;20.20;;
23222;SDS011;11780;13.904;100.620;2023-04-24T14:11:26;25.70;;;22.35;;
23222;SDS011;11780;13.904;100.620;2023-04-24T14:13:57;24.73;;;21.47;;
23222;SDS011;11780;13.904;100.620;2023-04-24T14:16:27;23.77;;;21.27;;
23222;SDS011;11780;13.904;100.620;2023-04-24T14:18:58;29.33;;;21.85;;
23222;SDS011;11780;13.904;100.620;2023-04-24T14:21:29;23.83;;;19.77;;
23222;SDS011;11780;13.904;100.620;2023-04-24T14:23:59;23.50;;;19.85;;
23222;SDS011;11780;13.904;100.620;2023-04-24T14:26:30;26.77;;;21.80;;
23222;SDS011;11780;13.904;100.620;2023-04-24T14:29:00;25.87;;;22.47;;
23222;SDS011;11780;13.904;100.620;2023-04-24T14:31:40;24.38;;;20.30;;
23222;SDS011;11780;13.904;100.620;2023-04-24T14:34:12;23.50;;;20.63;;
23222;SDS011;11780;13.904;100.620;2023-04-24T14:36:43;23.88;;;19.63;;
23222;SDS011;11780;13.904;100.620;2023-04-24T14:39:14;25.23;;;21.33;;
23222;SDS011;11780;13.904;100.620;2023-04-24T14:41:44;28.73;;;22.30;;
23222;SDS011;11780;13.904;100.620;2023-04-24T14:44:15;24.42;;;21.70;;
23222;SDS011;11780;13.904;100.620;2023-04-24T14:46:45;25.00;;;21.75;;
23222;SDS011;11780;13.904;100.620;2023-04-24T14:49:15;25.13;;;21.80;;
23222;SDS011;11780;13.904;100.620;2023-04-24T14:51:46;24.37;;;21.37;;
23222;SDS011;11780;13.904;100.620;2023-04-24T14:54:16;27.73;;;22.57;;
23222;SDS011;11780;13.904;100.620;2023-04-24T14:56:46;26.50;;;22.33;;
23222;SDS011;11780;13.904;100.620;2023-04-24T14:59:17;24.93;;;22.13;;
23222;SDS011;11780;13.904;100.620;2023-04-24T15:01:47;27.00;;;21.77;;
23222;SDS011;11780;13.904;100.620;2023-04-24T15:04:28;24.33;;;21.73;;